sensor_id;sensor_type;location;lat;lon;timestamp;temperature;humidity
8676;DHT22;4375;52.486;13.424;2023-12-20T00:00:58;7.60;99.90
8676;DHT22;4375;52.486;13.424;2023-12-20T00:03:23;7.60;99.90
8676;DHT22;4375;52.486;13.424;2023-12-20T00:05:49;7.70;99.90
8676;DHT22;4375;52.486;13.424;2023-12-20T00:08:15;7.60;99.90
8676;DHT22;4375;52.486;13.424;2023-12-20T00:10:41;7.70;99.90
8676;DHT22;4375;52.486;13.424;2023-12-20T00:13:07;7.70;99.90
8676;DHT22;4375;52.486;13.424;2023-12-20T00:15:33;7.70;99.90
8676;DHT22;4375;52.486;13.424;2023-12-20T00:17:59;7.70;99.90
8676;DHT22;4375;52.486;13.424;2023-12-20T00:20:26;7.70;99.90
8676;DHT22;4375;52.486;13.424;2023-12-20T00:22:53;7.70;99.90
8676;DHT22;4375;52.486;13.424;2023-12-20T00:25:18;7.60;99.90
8676;DHT22;4375;52.486;13.424;2023-12-20T00:27:44;7.80;99.90
8676;DHT22;4375;52.486;13.424;2023-12-20T00:30:11;7.60;99.90
8676;DHT22;4375;52.486;13.424;2023-12-20T00:32:36;7.50;99.90
8676;DHT22;4375;52.486;13.424;2023-12-20T00:35:02;7.60;99.90
8676;DHT22;4375;52.486;13.424;2023-12-20T00:37:28;7.70;99.90
8676;DHT22;4375;52.486;13.424;2023-12-20T00:39:53;7.60;99.90
8676;DHT22;4375;52.486;13.424;2023-12-20T00:42:19;7.70;99.90
8676;DHT22;4375;52.486;13.424;2023-12-20T00:44:45;7.60;99.90
8676;DHT22;4375;52.486;13.424;2023-12-20T00:47:11;7.70;99.90
8676;DHT22;4375;52.486;13.424;2023-12-20T00:49:36;7.60;99.90
8676;DHT22;4375;52.486;13.424;2023-12-20T00:52:02;7.50;99.90
8676;DHT22;4375;52.486;13.424;2023-12-20T00:54:28;7.50;99.90
8676;DHT22;4375;52.486;13.424;2023-12-20T00:56:55;7.60;99.90
8676;DHT22;4375;52.486;13.424;2023-12-20T00:59:20;7.50;99.90
8676;DHT22;4375;52.486;13.424;2023-12-20T01:01:46;7.60;99.90
8676;DHT22;4375;52.486;13.424;2023-12-20T01:04:11;7.60;99.90
8676;DHT22;4375;52.486;13.424;2023-12-20T01:06:37;7.60;99.90
8676;DHT22;4375;52.486;13.424;2023-12-20T01:09:03;7.60;99.90
8676;DHT22;4375;52.486;13.424;2023-12-20T01:11:28;7.60;99.90
8676;DHT22;4375;52.486;13.424;2023-12-20T01:13:54;7.60;99.90
8676;DHT22;4375;52.486;13.424;2023-12-20T01:16:20;7.50;99.90
8676;DHT22;4375;52.486;13.424;2023-12-20T01:18:46;7.60;99.90
8676;DHT22;4375;52.486;13.424;2023-12-20T01:21:12;7.60;99.90
8676;DHT22;4375;52.486;13.424;2023-12-20T01:23:37;7.70;99.90
8676;DHT22;4375;52.486;13.424;2023-12-20T01:26:03;7.60;99.90
8676;DHT22;4375;52.486;13.424;2023-12-20T01:28:30;7.70;99.90
8676;DHT22;4375;52.486;13.424;2023-12-20T01:30:57;7.70;99.90
8676;DHT22;4375;52.486;13.424;2023-12-20T01:33:22;7.60;99.90
8676;DHT22;4375;52.486;13.424;2023-12-20T01:35:48;7.60;99.90
8676;DHT22;4375;52.486;13.424;2023-12-20T01:38:14;7.60;99.90
8676;DHT22;4375;52.486;13.424;2023-12-20T01:40:40;7.60;99.90
8676;DHT22;4375;52.486;13.424;2023-12-20T01:43:08;7.50;99.90
8676;DHT22;4375;52.486;13.424;2023-12-20T01:45:35;7.60;99.90
8676;DHT22;4375;52.486;13.424;2023-12-20T01:48:01;7.60;99.90
8676;DHT22;4375;52.486;13.424;2023-12-20T01:50:28;7.60;99.90
8676;DHT22;4375;52.486;13.424;2023-12-20T01:52:55;7.50;99.90
8676;DHT22;4375;52.486;13.424;2023-12-20T01:55:24;7.60;99.90
8676;DHT22;4375;52.486;13.424;2023-12-20T01:57:50;7.60;99.90
8676;DHT22;4375;52.486;13.424;2023-12-20T02:00:17;7.60;99.90
8676;DHT22;4375;52.486;13.424;2023-12-20T02:02:44;7.60;99.90
8676;DHT22;4375;52.486;13.424;2023-12-20T02:05:11;7.60;99.90
8676;DHT22;4375;52.486;13.424;2023-12-20T02:07:36;7.50;99.90
8676;DHT22;4375;52.486;13.424;2023-12-20T02:10:02;7.60;99.90
8676;DHT22;4375;52.486;13.424;2023-12-20T02:12:29;7.60;99.90
8676;DHT22;4375;52.486;13.424;2023-12-20T02:14:55;7.70;99.90
8676;DHT22;4375;52.486;13.424;2023-12-20T02:17:22;7.60;99.90
8676;DHT22;4375;52.486;13.424;2023-12-20T02:19:47;7.60;99.90
8676;DHT22;4375;52.486;13.424;2023-12-20T02:22:13;7.60;99.90
8676;DHT22;4375;52.486;13.424;2023-12-20T02:24:39;7.60;99.90
8676;DHT22;4375;52.486;13.424;2023-12-20T02:27:08;7.70;99.90
8676;DHT22;4375;52.486;13.424;2023-12-20T02:29:34;7.70;99.90
8676;DHT22;4375;52.486;13.424;2023-12-20T02:32:00;7.70;99.90
8676;DHT22;4375;52.486;13.424;2023-12-20T02:34:26;7.70;99.90
8676;DHT22;4375;52.486;13.424;2023-12-20T02:36:52;7.80;99.90
8676;DHT22;4375;52.486;13.424;2023-12-20T02:39:18;7.80;99.90
8676;DHT22;4375;52.486;13.424;2023-12-20T02:41:44;7.70;99.90
8676;DHT22;4375;52.486;13.424;2023-12-20T02:44:10;7.80;99.90
8676;DHT22;4375;52.486;13.424;2023-12-20T02:46:35;7.80;99.90
8676;DHT22;4375;52.486;13.424;2023-12-20T02:49:01;7.80;99.90
8676;DHT22;4375;52.486;13.424;2023-12-20T02:51:27;7.80;99.90
8676;DHT22;4375;52.486;13.424;2023-12-20T02:53:52;7.80;99.90
8676;DHT22;4375;52.486;13.424;2023-12-20T02:56:18;7.70;99.90
8676;DHT22;4375;52.486;13.424;2023-12-20T02:58:43;7.80;99.90
8676;DHT22;4375;52.486;13.424;2023-12-20T03:01:09;7.70;99.90
8676;DHT22;4375;52.486;13.424;2023-12-20T03:03:35;7.80;99.90
8676;DHT22;4375;52.486;13.424;2023-12-20T03:06:00;7.70;99.90
8676;DHT22;4375;52.486;13.424;2023-12-20T03:08:26;7.70;99.90
8676;DHT22;4375;52.486;13.424;2023-12-20T03:10:51;7.70;99.90
8676;DHT22;4375;52.486;13.424;2023-12-20T03:13:18;7.80;99.90
8676;DHT22;4375;52.486;13.424;2023-12-20T03:15:45;7.80;99.90
8676;DHT22;4375;52.486;13.424;2023-12-20T03:18:10;7.80;99.90
8676;DHT22;4375;52.486;13.424;2023-12-20T03:20:36;7.70;99.90
8676;DHT22;4375;52.486;13.424;2023-12-20T03:23:02;7.70;99.90
8676;DHT22;4375;52.486;13.424;2023-12-20T03:25:28;7.70;99.90
8676;DHT22;4375;52.486;13.424;2023-12-20T03:27:54;7.70;99.90
8676;DHT22;4375;52.486;13.424;2023-12-20T03:30:19;7.60;99.90
8676;DHT22;4375;52.486;13.424;2023-12-20T03:32:46;7.60;99.90
8676;DHT22;4375;52.486;13.424;2023-12-20T03:35:12;7.60;99.90
8676;DHT22;4375;52.486;13.424;2023-12-20T03:37:37;7.60;99.90
8676;DHT22;4375;52.486;13.424;2023-12-20T03:40:03;7.60;99.90
8676;DHT22;4375;52.486;13.424;2023-12-20T03:42:29;7.60;99.90
8676;DHT22;4375;52.486;13.424;2023-12-20T03:44:55;7.60;99.90
8676;DHT22;4375;52.486;13.424;2023-12-20T03:47:20;7.60;99.90
8676;DHT22;4375;52.486;13.424;2023-12-20T03:49:46;7.60;99.90
8676;DHT22;4375;52.486;13.424;2023-12-20T03:52:12;7.60;99.90
8676;DHT22;4375;52.486;13.424;2023-12-20T03:54:38;7.70;99.90
8676;DHT22;4375;52.486;13.424;2023-12-20T03:57:04;7.70;99.90
8676;DHT22;4375;52.486;13.424;2023-12-20T03:59:30;7.70;99.90
8676;DHT22;4375;52.486;13.424;2023-12-20T04:01:59;7.60;99.90
8676;DHT22;4375;52.486;13.424;2023-12-20T04:04:25;7.60;99.90
8676;DHT22;4375;52.486;13.424;2023-12-20T04:06:51;7.60;99.90
8676;DHT22;4375;52.486;13.424;2023-12-20T04:09:16;7.50;99.90
8676;DHT22;4375;52.486;13.424;2023-12-20T04:11:42;7.50;99.90
8676;DHT22;4375;52.486;13.424;2023-12-20T04:14:08;7.50;99.90
8676;DHT22;4375;52.486;13.424;2023-12-20T04:16:34;7.50;99.90
8676;DHT22;4375;52.486;13.424;2023-12-20T04:18:59;7.60;99.90
8676;DHT22;4375;52.486;13.424;2023-12-20T04:21:25;7.60;99.90
8676;DHT22;4375;52.486;13.424;2023-12-20T04:23:51;7.40;99.90
8676;DHT22;4375;52.486;13.424;2023-12-20T04:26:16;7.30;99.90
8676;DHT22;4375;52.486;13.424;2023-12-20T04:28:43;7.30;99.90
8676;DHT22;4375;52.486;13.424;2023-12-20T04:31:08;7.40;99.90
8676;DHT22;4375;52.486;13.424;2023-12-20T04:33:34;7.30;99.90
8676;DHT22;4375;52.486;13.424;2023-12-20T04:35:59;7.30;99.90
8676;DHT22;4375;52.486;13.424;2023-12-20T04:38:26;7.30;99.90
8676;DHT22;4375;52.486;13.424;2023-12-20T04:40:51;7.20;99.90
8676;DHT22;4375;52.486;13.424;2023-12-20T04:43:17;7.20;99.90
8676;DHT22;4375;52.486;13.424;2023-12-20T04:45:43;7.10;99.90
8676;DHT22;4375;52.486;13.424;2023-12-20T04:48:08;7.10;99.90
8676;DHT22;4375;52.486;13.424;2023-12-20T04:50:34;6.90;99.90
8676;DHT22;4375;52.486;13.424;2023-12-20T04:53:00;6.90;99.90
8676;DHT22;4375;52.486;13.424;2023-12-20T04:55:25;6.90;99.90
8676;DHT22;4375;52.486;13.424;2023-12-20T04:57:51;6.90;99.90
8676;DHT22;4375;52.486;13.424;2023-12-20T05:00:17;6.90;99.90
8676;DHT22;4375;52.486;13.424;2023-12-20T05:02:43;7.00;99.90
8676;DHT22;4375;52.486;13.424;2023-12-20T05:05:08;6.90;99.90
8676;DHT22;4375;52.486;13.424;2023-12-20T05:07:34;6.90;99.90
8676;DHT22;4375;52.486;13.424;2023-12-20T05:10:00;6.80;99.90
8676;DHT22;4375;52.486;13.424;2023-12-20T05:12:25;6.80;99.90
8676;DHT22;4375;52.486;13.424;2023-12-20T05:14:52;6.80;99.90
8676;DHT22;4375;52.486;13.424;2023-12-20T05:17:18;6.80;99.90
8676;DHT22;4375;52.486;13.424;2023-12-20T05:19:45;6.90;99.90
8676;DHT22;4375;52.486;13.424;2023-12-20T05:22:11;6.90;99.90
8676;DHT22;4375;52.486;13.424;2023-12-20T05:24:37;6.90;99.90
8676;DHT22;4375;52.486;13.424;2023-12-20T05:27:02;6.90;99.90
8676;DHT22;4375;52.486;13.424;2023-12-20T05:29:28;7.00;99.90
8676;DHT22;4375;52.486;13.424;2023-12-20T05:31:54;6.80;99.90
8676;DHT22;4375;52.486;13.424;2023-12-20T05:34:19;6.70;99.90
8676;DHT22;4375;52.486;13.424;2023-12-20T05:36:45;6.60;99.90
8676;DHT22;4375;52.486;13.424;2023-12-20T05:39:11;6.50;99.90
8676;DHT22;4375;52.486;13.424;2023-12-20T05:41:37;6.60;99.90
8676;DHT22;4375;52.486;13.424;2023-12-20T05:44:03;6.50;99.90
8676;DHT22;4375;52.486;13.424;2023-12-20T05:46:28;6.50;99.90
8676;DHT22;4375;52.486;13.424;2023-12-20T05:48:54;6.40;99.90
8676;DHT22;4375;52.486;13.424;2023-12-20T05:51:20;6.50;99.90
8676;DHT22;4375;52.486;13.424;2023-12-20T05:53:45;6.40;99.90
8676;DHT22;4375;52.486;13.424;2023-12-20T05:56:11;6.40;99.90
8676;DHT22;4375;52.486;13.424;2023-12-20T05:58:38;6.40;99.90
8676;DHT22;4375;52.486;13.424;2023-12-20T06:01:05;6.30;99.90
8676;DHT22;4375;52.486;13.424;2023-12-20T06:03:31;6.20;99.90
8676;DHT22;4375;52.486;13.424;2023-12-20T06:05:56;6.20;99.90
8676;DHT22;4375;52.486;13.424;2023-12-20T06:08:22;6.10;99.90
8676;DHT22;4375;52.486;13.424;2023-12-20T06:10:48;6.10;99.90
8676;DHT22;4375;52.486;13.424;2023-12-20T06:13:14;6.00;99.90
8676;DHT22;4375;52.486;13.424;2023-12-20T06:15:40;6.00;99.90
8676;DHT22;4375;52.486;13.424;2023-12-20T06:18:06;6.00;99.90
8676;DHT22;4375;52.486;13.424;2023-12-20T06:20:32;5.90;99.90
8676;DHT22;4375;52.486;13.424;2023-12-20T06:22:58;6.00;99.90
8676;DHT22;4375;52.486;13.424;2023-12-20T06:25:24;6.00;99.90
8676;DHT22;4375;52.486;13.424;2023-12-20T06:27:49;6.00;99.90
8676;DHT22;4375;52.486;13.424;2023-12-20T06:30:16;6.10;99.90
8676;DHT22;4375;52.486;13.424;2023-12-20T06:32:42;6.00;99.90
8676;DHT22;4375;52.486;13.424;2023-12-20T06:35:09;6.00;99.90
8676;DHT22;4375;52.486;13.424;2023-12-20T06:37:35;6.10;99.90
8676;DHT22;4375;52.486;13.424;2023-12-20T06:40:01;6.10;99.90
8676;DHT22;4375;52.486;13.424;2023-12-20T06:42:26;6.00;99.90
8676;DHT22;4375;52.486;13.424;2023-12-20T06:44:52;6.10;99.90
8676;DHT22;4375;52.486;13.424;2023-12-20T06:47:18;6.00;99.90
8676;DHT22;4375;52.486;13.424;2023-12-20T06:49:44;6.00;99.90
8676;DHT22;4375;52.486;13.424;2023-12-20T06:52:09;6.00;99.90
8676;DHT22;4375;52.486;13.424;2023-12-20T06:54:35;6.10;99.90
8676;DHT22;4375;52.486;13.424;2023-12-20T06:57:01;6.10;99.90
8676;DHT22;4375;52.486;13.424;2023-12-20T06:59:28;6.10;99.90
8676;DHT22;4375;52.486;13.424;2023-12-20T07:01:54;6.10;99.90
8676;DHT22;4375;52.486;13.424;2023-12-20T07:04:20;6.20;99.90
8676;DHT22;4375;52.486;13.424;2023-12-20T07:06:47;6.20;99.90
8676;DHT22;4375;52.486;13.424;2023-12-20T07:09:13;6.10;99.90
8676;DHT22;4375;52.486;13.424;2023-12-20T07:11:39;6.10;99.90
8676;DHT22;4375;52.486;13.424;2023-12-20T07:14:05;6.10;99.90
8676;DHT22;4375;52.486;13.424;2023-12-20T07:16:31;6.10;99.90
8676;DHT22;4375;52.486;13.424;2023-12-20T07:18:57;6.10;99.90
8676;DHT22;4375;52.486;13.424;2023-12-20T07:21:23;6.10;99.90
8676;DHT22;4375;52.486;13.424;2023-12-20T07:23:48;6.10;99.90
8676;DHT22;4375;52.486;13.424;2023-12-20T07:26:15;6.20;99.90
8676;DHT22;4375;52.486;13.424;2023-12-20T07:28:40;6.20;99.90
8676;DHT22;4375;52.486;13.424;2023-12-20T07:31:06;6.20;99.90
8676;DHT22;4375;52.486;13.424;2023-12-20T07:33:32;6.20;99.90
8676;DHT22;4375;52.486;13.424;2023-12-20T07:35:59;6.10;99.90
8676;DHT22;4375;52.486;13.424;2023-12-20T07:38:25;6.10;99.90
8676;DHT22;4375;52.486;13.424;2023-12-20T07:40:50;6.10;99.90
8676;DHT22;4375;52.486;13.424;2023-12-20T07:43:16;6.20;99.90
8676;DHT22;4375;52.486;13.424;2023-12-20T07:45:42;6.10;99.90
8676;DHT22;4375;52.486;13.424;2023-12-20T07:48:07;6.20;99.90
8676;DHT22;4375;52.486;13.424;2023-12-20T07:50:34;6.10;99.90
8676;DHT22;4375;52.486;13.424;2023-12-20T07:52:59;6.00;99.90
8676;DHT22;4375;52.486;13.424;2023-12-20T07:55:26;6.10;99.90
8676;DHT22;4375;52.486;13.424;2023-12-20T07:57:52;6.10;99.90
8676;DHT22;4375;52.486;13.424;2023-12-20T08:00:18;6.20;99.90
8676;DHT22;4375;52.486;13.424;2023-12-20T08:02:44;6.20;99.90
8676;DHT22;4375;52.486;13.424;2023-12-20T08:05:09;6.20;99.90
8676;DHT22;4375;52.486;13.424;2023-12-20T08:07:35;6.30;99.90
8676;DHT22;4375;52.486;13.424;2023-12-20T08:10:01;6.30;99.90
8676;DHT22;4375;52.486;13.424;2023-12-20T08:12:26;6.20;99.90
8676;DHT22;4375;52.486;13.424;2023-12-20T08:14:53;6.30;99.90
8676;DHT22;4375;52.486;13.424;2023-12-20T08:17:19;6.40;99.90
8676;DHT22;4375;52.486;13.424;2023-12-20T08:19:45;6.40;99.90
8676;DHT22;4375;52.486;13.424;2023-12-20T08:22:11;6.30;99.90
8676;DHT22;4375;52.486;13.424;2023-12-20T08:24:37;6.40;99.90
8676;DHT22;4375;52.486;13.424;2023-12-20T08:27:04;6.30;99.90
8676;DHT22;4375;52.486;13.424;2023-12-20T08:29:29;6.40;99.90
8676;DHT22;4375;52.486;13.424;2023-12-20T08:31:56;6.30;99.90
8676;DHT22;4375;52.486;13.424;2023-12-20T08:34:22;6.30;99.90
8676;DHT22;4375;52.486;13.424;2023-12-20T08:36:47;6.30;99.90
8676;DHT22;4375;52.486;13.424;2023-12-20T08:39:13;6.30;99.90
8676;DHT22;4375;52.486;13.424;2023-12-20T08:41:39;6.40;99.90
8676;DHT22;4375;52.486;13.424;2023-12-20T08:44:04;6.50;99.90
8676;DHT22;4375;52.486;13.424;2023-12-20T08:46:30;6.50;99.90
8676;DHT22;4375;52.486;13.424;2023-12-20T08:48:56;6.60;99.90
8676;DHT22;4375;52.486;13.424;2023-12-20T08:51:21;6.60;99.90
8676;DHT22;4375;52.486;13.424;2023-12-20T08:53:49;6.60;99.90
8676;DHT22;4375;52.486;13.424;2023-12-20T08:56:15;6.70;99.90
8676;DHT22;4375;52.486;13.424;2023-12-20T08:58:41;6.70;99.90
8676;DHT22;4375;52.486;13.424;2023-12-20T09:01:07;6.80;99.90
8676;DHT22;4375;52.486;13.424;2023-12-20T09:03:33;6.80;99.90
8676;DHT22;4375;52.486;13.424;2023-12-20T09:05:58;6.90;99.90
8676;DHT22;4375;52.486;13.424;2023-12-20T09:08:24;6.80;99.90
8676;DHT22;4375;52.486;13.424;2023-12-20T09:10:50;6.80;99.90
8676;DHT22;4375;52.486;13.424;2023-12-20T09:13:16;6.80;99.90
8676;DHT22;4375;52.486;13.424;2023-12-20T09:15:42;6.80;99.90
8676;DHT22;4375;52.486;13.424;2023-12-20T09:18:07;7.10;99.90
8676;DHT22;4375;52.486;13.424;2023-12-20T09:20:34;7.10;99.90
8676;DHT22;4375;52.486;13.424;2023-12-20T09:22:59;7.10;99.90
8676;DHT22;4375;52.486;13.424;2023-12-20T09:25:25;7.20;99.90
8676;DHT22;4375;52.486;13.424;2023-12-20T09:27:55;7.10;99.90
8676;DHT22;4375;52.486;13.424;2023-12-20T09:30:21;7.20;99.90
8676;DHT22;4375;52.486;13.424;2023-12-20T09:32:46;7.10;99.90
8676;DHT22;4375;52.486;13.424;2023-12-20T09:35:12;7.10;99.90
8676;DHT22;4375;52.486;13.424;2023-12-20T09:37:37;7.00;99.90
8676;DHT22;4375;52.486;13.424;2023-12-20T09:40:04;7.10;99.90
8676;DHT22;4375;52.486;13.424;2023-12-20T09:42:48;7.20;99.90
8676;DHT22;4375;52.486;13.424;2023-12-20T09:45:16;7.10;99.90
8676;DHT22;4375;52.486;13.424;2023-12-20T09:47:45;7.20;99.90
8676;DHT22;4375;52.486;13.424;2023-12-20T09:50:11;7.20;99.90
8676;DHT22;4375;52.486;13.424;2023-12-20T09:52:39;7.20;99.90
8676;DHT22;4375;52.486;13.424;2023-12-20T09:55:05;7.10;99.90
8676;DHT22;4375;52.486;13.424;2023-12-20T09:57:32;7.20;99.90
8676;DHT22;4375;52.486;13.424;2023-12-20T09:59:57;7.30;99.90
8676;DHT22;4375;52.486;13.424;2023-12-20T10:02:25;7.20;99.90
8676;DHT22;4375;52.486;13.424;2023-12-20T10:04:54;7.20;99.90
8676;DHT22;4375;52.486;13.424;2023-12-20T10:07:20;7.30;99.90
8676;DHT22;4375;52.486;13.424;2023-12-20T10:09:47;7.30;99.90
8676;DHT22;4375;52.486;13.424;2023-12-20T10:12:12;7.30;99.90
8676;DHT22;4375;52.486;13.424;2023-12-20T10:14:39;7.30;99.90
8676;DHT22;4375;52.486;13.424;2023-12-20T10:17:05;7.30;99.90
8676;DHT22;4375;52.486;13.424;2023-12-20T10:19:32;7.30;99.90
8676;DHT22;4375;52.486;13.424;2023-12-20T10:22:01;7.30;99.90
8676;DHT22;4375;52.486;13.424;2023-12-20T10:24:30;7.30;99.90
8676;DHT22;4375;52.486;13.424;2023-12-20T10:27:05;7.20;99.90
8676;DHT22;4375;52.486;13.424;2023-12-20T10:29:35;7.20;99.90
8676;DHT22;4375;52.486;13.424;2023-12-20T10:32:24;7.20;99.90
8676;DHT22;4375;52.486;13.424;2023-12-20T10:34:50;7.30;99.90
8676;DHT22;4375;52.486;13.424;2023-12-20T10:37:16;7.30;99.90
8676;DHT22;4375;52.486;13.424;2023-12-20T10:39:43;7.50;99.90
8676;DHT22;4375;52.486;13.424;2023-12-20T10:42:11;7.40;99.90
8676;DHT22;4375;52.486;13.424;2023-12-20T10:44:37;7.50;99.90
8676;DHT22;4375;52.486;13.424;2023-12-20T10:47:04;7.50;99.90
8676;DHT22;4375;52.486;13.424;2023-12-20T10:49:31;7.50;99.90
8676;DHT22;4375;52.486;13.424;2023-12-20T10:51:59;7.50;99.90
8676;DHT22;4375;52.486;13.424;2023-12-20T10:54:27;7.50;99.90
8676;DHT22;4375;52.486;13.424;2023-12-20T10:56:53;7.50;99.90
8676;DHT22;4375;52.486;13.424;2023-12-20T10:59:20;7.50;99.90
8676;DHT22;4375;52.486;13.424;2023-12-20T11:01:48;7.50;99.90
8676;DHT22;4375;52.486;13.424;2023-12-20T11:04:21;7.50;99.90
8676;DHT22;4375;52.486;13.424;2023-12-20T11:06:49;7.40;99.90
8676;DHT22;4375;52.486;13.424;2023-12-20T11:09:24;7.50;99.90
8676;DHT22;4375;52.486;13.424;2023-12-20T11:14:50;7.60;99.90
8676;DHT22;4375;52.486;13.424;2023-12-20T11:17:16;7.50;99.90
8676;DHT22;4375;52.486;13.424;2023-12-20T11:22:29;7.50;99.90
8676;DHT22;4375;52.486;13.424;2023-12-20T11:25:05;7.50;99.90
8676;DHT22;4375;52.486;13.424;2023-12-20T11:27:32;7.50;99.90
8676;DHT22;4375;52.486;13.424;2023-12-20T11:29:58;7.40;99.90
8676;DHT22;4375;52.486;13.424;2023-12-20T11:37:32;7.40;99.90
8676;DHT22;4375;52.486;13.424;2023-12-20T11:40:05;7.50;99.90
8676;DHT22;4375;52.486;13.424;2023-12-20T11:42:39;7.40;99.90
8676;DHT22;4375;52.486;13.424;2023-12-20T11:45:09;7.40;99.90
8676;DHT22;4375;52.486;13.424;2023-12-20T11:47:34;7.30;99.90
8676;DHT22;4375;52.486;13.424;2023-12-20T11:50:01;7.40;99.90
8676;DHT22;4375;52.486;13.424;2023-12-20T11:52:29;7.50;99.90
8676;DHT22;4375;52.486;13.424;2023-12-20T11:55:29;7.40;99.90
8676;DHT22;4375;52.486;13.424;2023-12-20T11:57:55;7.40;99.90
8676;DHT22;4375;52.486;13.424;2023-12-20T12:00:21;7.40;99.90
8676;DHT22;4375;52.486;13.424;2023-12-20T12:02:57;7.30;99.90
8676;DHT22;4375;52.486;13.424;2023-12-20T12:05:23;7.40;99.90
8676;DHT22;4375;52.486;13.424;2023-12-20T12:07:49;7.40;99.90
8676;DHT22;4375;52.486;13.424;2023-12-20T12:10:15;7.40;99.90
8676;DHT22;4375;52.486;13.424;2023-12-20T12:12:40;7.40;99.90
8676;DHT22;4375;52.486;13.424;2023-12-20T12:15:07;7.40;99.90
8676;DHT22;4375;52.486;13.424;2023-12-20T12:17:33;7.40;99.90
8676;DHT22;4375;52.486;13.424;2023-12-20T12:20:05;7.40;99.90
8676;DHT22;4375;52.486;13.424;2023-12-20T12:22:35;7.40;99.90
8676;DHT22;4375;52.486;13.424;2023-12-20T12:25:12;7.40;99.90
8676;DHT22;4375;52.486;13.424;2023-12-20T12:27:41;7.40;99.90
8676;DHT22;4375;52.486;13.424;2023-12-20T12:30:08;7.50;99.90
8676;DHT22;4375;52.486;13.424;2023-12-20T12:32:35;7.50;99.90
8676;DHT22;4375;52.486;13.424;2023-12-20T12:35:05;7.40;99.90
8676;DHT22;4375;52.486;13.424;2023-12-20T12:37:37;7.30;99.90
8676;DHT22;4375;52.486;13.424;2023-12-20T12:40:05;7.20;99.90
8676;DHT22;4375;52.486;13.424;2023-12-20T12:42:31;7.20;99.90
8676;DHT22;4375;52.486;13.424;2023-12-20T12:44:56;7.20;99.90
8676;DHT22;4375;52.486;13.424;2023-12-20T12:47:22;7.20;99.90
8676;DHT22;4375;52.486;13.424;2023-12-20T12:49:49;7.10;99.90
8676;DHT22;4375;52.486;13.424;2023-12-20T12:52:16;7.10;99.90
8676;DHT22;4375;52.486;13.424;2023-12-20T12:54:42;7.10;99.90
8676;DHT22;4375;52.486;13.424;2023-12-20T12:57:10;7.10;99.90
8676;DHT22;4375;52.486;13.424;2023-12-20T12:59:36;7.20;99.90
8676;DHT22;4375;52.486;13.424;2023-12-20T13:02:01;7.10;99.90
8676;DHT22;4375;52.486;13.424;2023-12-20T13:04:27;7.10;99.90
8676;DHT22;4375;52.486;13.424;2023-12-20T13:06:53;7.10;99.90
8676;DHT22;4375;52.486;13.424;2023-12-20T13:09:18;7.10;99.90
8676;DHT22;4375;52.486;13.424;2023-12-20T13:11:44;7.00;99.90
8676;DHT22;4375;52.486;13.424;2023-12-20T13:14:11;7.00;99.90
8676;DHT22;4375;52.486;13.424;2023-12-20T13:16:41;7.00;99.90
8676;DHT22;4375;52.486;13.424;2023-12-20T13:19:07;6.90;99.90
8676;DHT22;4375;52.486;13.424;2023-12-20T13:21:32;6.90;99.90
8676;DHT22;4375;52.486;13.424;2023-12-20T13:23:58;6.90;99.90
8676;DHT22;4375;52.486;13.424;2023-12-20T13:26:23;6.90;99.90
8676;DHT22;4375;52.486;13.424;2023-12-20T13:28:49;6.90;99.90
8676;DHT22;4375;52.486;13.424;2023-12-20T13:31:15;6.90;99.90
8676;DHT22;4375;52.486;13.424;2023-12-20T13:33:40;6.90;99.90
8676;DHT22;4375;52.486;13.424;2023-12-20T13:36:06;6.80;99.90
8676;DHT22;4375;52.486;13.424;2023-12-20T13:38:32;6.60;99.90
8676;DHT22;4375;52.486;13.424;2023-12-20T13:40:57;6.60;99.90
8676;DHT22;4375;52.486;13.424;2023-12-20T13:43:24;6.50;99.90
8676;DHT22;4375;52.486;13.424;2023-12-20T13:45:50;6.40;99.90
8676;DHT22;4375;52.486;13.424;2023-12-20T13:48:16;6.40;99.90
8676;DHT22;4375;52.486;13.424;2023-12-20T13:50:42;6.30;99.90
8676;DHT22;4375;52.486;13.424;2023-12-20T13:53:07;6.40;99.90
8676;DHT22;4375;52.486;13.424;2023-12-20T13:55:33;6.30;99.90
8676;DHT22;4375;52.486;13.424;2023-12-20T13:57:59;6.30;99.90
8676;DHT22;4375;52.486;13.424;2023-12-20T14:00:24;6.20;99.90
8676;DHT22;4375;52.486;13.424;2023-12-20T14:02:50;6.20;99.90
8676;DHT22;4375;52.486;13.424;2023-12-20T14:05:16;6.20;99.90
8676;DHT22;4375;52.486;13.424;2023-12-20T14:07:46;6.20;99.90
8676;DHT22;4375;52.486;13.424;2023-12-20T14:10:12;6.20;99.90
8676;DHT22;4375;52.486;13.424;2023-12-20T14:12:41;6.20;99.90
8676;DHT22;4375;52.486;13.424;2023-12-20T14:15:07;6.20;99.90
8676;DHT22;4375;52.486;13.424;2023-12-20T14:17:40;6.20;99.90
8676;DHT22;4375;52.486;13.424;2023-12-20T14:20:07;6.10;99.90
8676;DHT22;4375;52.486;13.424;2023-12-20T14:22:33;6.10;99.90
8676;DHT22;4375;52.486;13.424;2023-12-20T14:24:59;6.10;99.90
8676;DHT22;4375;52.486;13.424;2023-12-20T14:27:25;6.10;99.90
8676;DHT22;4375;52.486;13.424;2023-12-20T14:29:53;6.00;99.90
8676;DHT22;4375;52.486;13.424;2023-12-20T14:32:19;6.00;99.90
8676;DHT22;4375;52.486;13.424;2023-12-20T14:34:45;6.00;99.90
8676;DHT22;4375;52.486;13.424;2023-12-20T14:37:11;6.00;99.90
8676;DHT22;4375;52.486;13.424;2023-12-20T14:39:36;6.00;99.90
8676;DHT22;4375;52.486;13.424;2023-12-20T14:42:07;6.10;99.90
8676;DHT22;4375;52.486;13.424;2023-12-20T14:44:36;6.10;99.90
8676;DHT22;4375;52.486;13.424;2023-12-20T14:47:02;6.20;99.90
8676;DHT22;4375;52.486;13.424;2023-12-20T14:49:28;6.20;99.90
8676;DHT22;4375;52.486;13.424;2023-12-20T14:51:54;6.30;99.90
8676;DHT22;4375;52.486;13.424;2023-12-20T14:54:19;6.20;99.90
8676;DHT22;4375;52.486;13.424;2023-12-20T14:56:46;6.30;99.90
8676;DHT22;4375;52.486;13.424;2023-12-20T14:59:12;6.20;99.90
8676;DHT22;4375;52.486;13.424;2023-12-20T15:01:38;6.10;99.90
8676;DHT22;4375;52.486;13.424;2023-12-20T15:04:06;6.20;99.90
8676;DHT22;4375;52.486;13.424;2023-12-20T15:06:32;6.20;99.90
8676;DHT22;4375;52.486;13.424;2023-12-20T15:08:59;6.30;99.90
8676;DHT22;4375;52.486;13.424;2023-12-20T15:11:25;6.20;99.90
8676;DHT22;4375;52.486;13.424;2023-12-20T15:13:51;6.10;99.90
8676;DHT22;4375;52.486;13.424;2023-12-20T15:16:22;6.10;99.90
8676;DHT22;4375;52.486;13.424;2023-12-20T15:18:48;6.00;99.90
8676;DHT22;4375;52.486;13.424;2023-12-20T15:21:14;6.10;99.90
8676;DHT22;4375;52.486;13.424;2023-12-20T15:23:40;6.10;99.90
8676;DHT22;4375;52.486;13.424;2023-12-20T15:26:16;6.10;99.90
8676;DHT22;4375;52.486;13.424;2023-12-20T15:28:42;6.10;99.90
8676;DHT22;4375;52.486;13.424;2023-12-20T15:31:08;6.00;99.90
8676;DHT22;4375;52.486;13.424;2023-12-20T15:33:33;6.00;99.90
8676;DHT22;4375;52.486;13.424;2023-12-20T15:35:59;6.00;99.90
8676;DHT22;4375;52.486;13.424;2023-12-20T15:38:24;5.90;99.90
8676;DHT22;4375;52.486;13.424;2023-12-20T15:40:50;5.90;99.90
8676;DHT22;4375;52.486;13.424;2023-12-20T15:49:41;5.90;99.90
8676;DHT22;4375;52.486;13.424;2023-12-20T15:52:51;5.90;99.90
8676;DHT22;4375;52.486;13.424;2023-12-20T15:59:18;5.80;99.90
8676;DHT22;4375;52.486;13.424;2023-12-20T16:01:44;5.80;99.90
8676;DHT22;4375;52.486;13.424;2023-12-20T16:04:24;5.80;99.90
8676;DHT22;4375;52.486;13.424;2023-12-20T16:07:04;5.60;99.90
8676;DHT22;4375;52.486;13.424;2023-12-20T16:13:16;5.60;99.90
8676;DHT22;4375;52.486;13.424;2023-12-20T16:29:56;5.60;99.90
8676;DHT22;4375;52.486;13.424;2023-12-20T16:33:22;5.50;99.90
8676;DHT22;4375;52.486;13.424;2023-12-20T16:43:15;5.60;99.90
8676;DHT22;4375;52.486;13.424;2023-12-20T17:54:08;5.90;99.90